Time;durP1;ratioP1;P1;durP2;ratioP2;P2;SDS_P1;SDS_P2;PMS_P1;PMS_P2;Temp;Humidity;BMP_temperature;BMP_pressure;BME280_temperature;BME280_humidity;BME280_pressure;Samples;Min_cycle;Max_cycle;Signal;HPM_P1;HPM_P2
2023/06/26 00:01:15;;;;;;;7.30;5.43;;;21.60;87.80;;;;;;4996487;28;20027;-85
2023/06/26 00:03:41;;;;;;;7.80;5.80;;;21.60;87.70;;;;;;4994259;28;20059;-84
2023/06/26 00:06:06;;;;;;;7.32;5.32;;;21.70;87.70;;;;;;4968438;28;20027;-85
2023/06/26 00:08:32;;;;;;;8.77;5.50;;;21.60;87.50;;;;;;4997080;28;20384;-85
2023/06/26 00:10:57;;;;;;;7.43;5.28;;;21.70;87.50;;;;;;4997282;28;20041;-85
2023/06/26 00:13:24;;;;;;;7.20;5.60;;;21.70;87.40;;;;;;4979670;28;20033;-85
2023/06/26 00:15:50;;;;;;;7.70;5.78;;;21.70;87.40;;;;;;4976402;28;20077;-85
2023/06/26 00:18:15;;;;;;;9.25;6.07;;;21.70;87.30;;;;;;4962364;28;20027;-85
2023/06/26 00:20:41;;;;;;;8.02;5.57;;;21.70;87.30;;;;;;4994541;28;20498;-85
2023/06/26 00:23:07;;;;;;;7.40;5.65;;;21.70;87.30;;;;;;4996497;28;20029;-85
2023/06/26 00:25:33;;;;;;;8.68;5.82;;;21.80;87.40;;;;;;4990992;28;20014;-84
2023/06/26 00:27:59;;;;;;;7.70;5.47;;;21.70;87.40;;;;;;4975496;28;20122;-85
2023/06/26 00:30:24;;;;;;;7.60;5.80;;;21.70;87.40;;;;;;4995882;28;20101;-85
2023/06/26 00:32:50;;;;;;;8.38;6.00;;;21.70;87.50;;;;;;4993672;28;20018;-85
2023/06/26 00:35:16;;;;;;;7.75;5.50;;;21.70;87.60;;;;;;4991250;28;20041;-86
2023/06/26 00:37:42;;;;;;;8.00;5.55;;;21.60;87.70;;;;;;4987756;28;20027;-86
2023/06/26 00:40:08;;;;;;;6.80;5.25;;;21.60;87.70;;;;;;5007192;28;20109;-86
2023/06/26 00:42:33;;;;;;;7.70;5.85;;;21.60;87.80;;;;;;4989608;28;20023;-85
2023/06/26 00:44:59;;;;;;;7.40;5.38;;;21.60;87.80;;;;;;4997045;28;20037;-86
2023/06/26 00:47:25;;;;;;;8.75;6.20;;;21.60;87.90;;;;;;5006250;28;20022;-86
2023/06/26 00:49:51;;;;;;;7.72;5.32;;;21.60;87.90;;;;;;4988334;28;20026;-86
2023/06/26 00:52:17;;;;;;;7.53;5.60;;;21.60;88.00;;;;;;4987736;28;20053;-85
2023/06/26 00:54:43;;;;;;;7.60;5.40;;;21.60;88.00;;;;;;4984466;28;20030;-86
2023/06/26 00:57:09;;;;;;;7.32;5.95;;;21.60;88.10;;;;;;4984251;28;20089;-85
2023/06/26 00:59:35;;;;;;;7.82;5.85;;;21.60;88.10;;;;;;5003703;28;20367;-85
2023/06/26 01:02:00;;;;;;;7.20;5.50;;;21.60;88.10;;;;;;5003265;28;20023;-85
2023/06/26 01:04:27;;;;;;;7.35;5.65;;;21.60;88.10;;;;;;4998934;28;20078;-85
2023/06/26 01:06:54;;;;;;;7.32;5.70;;;21.60;88.20;;;;;;4998965;28;20034;-86
2023/06/26 01:09:22;;;;;;;7.32;5.53;;;21.60;88.10;;;;;;5001676;28;20033;-85
2023/06/26 01:11:47;;;;;;;7.43;5.32;;;21.60;88.20;;;;;;5002456;28;20044;-85
2023/06/26 01:14:13;;;;;;;7.55;5.25;;;21.60;88.20;;;;;;4999708;28;20476;-85
2023/06/26 01:16:40;;;;;;;7.57;5.35;;;21.60;88.10;;;;;;4979974;28;20049;-85
2023/06/26 01:19:10;;;;;;;7.97;5.63;;;21.60;88.20;;;;;;5000515;28;20105;-85
2023/06/26 01:21:42;;;;;;;7.30;5.63;;;21.50;88.10;;;;;;5000729;28;20026;-86
2023/06/26 01:24:20;;;;;;;8.02;5.80;;;21.60;88.10;;;;;;5001831;28;20284;-86
2023/06/26 01:26:48;;;;;;;7.50;6.10;;;21.60;88.10;;;;;;4984259;28;20090;-86
2023/06/26 01:29:16;;;;;;;7.50;5.50;;;21.60;88.10;;;;;;4997008;28;20475;-85
2023/06/26 01:31:43;;;;;;;8.43;5.80;;;21.60;88.00;;;;;;5003640;28;20360;-85
2023/06/26 01:34:09;;;;;;;7.78;5.88;;;21.60;87.90;;;;;;4999172;28;20487;-86
2023/06/26 01:36:34;;;;;;;7.57;5.70;;;21.60;87.80;;;;;;4982509;28;20153;-86
2023/06/26 01:39:00;;;;;;;7.88;5.93;;;21.60;87.80;;;;;;5002777;28;20061;-86
2023/06/26 01:41:25;;;;;;;8.10;6.20;;;21.70;87.70;;;;;;5003638;28;20022;-86
2023/06/26 01:44:06;;;;;;;7.93;5.63;;;21.70;87.80;;;;;;4984778;28;20022;-85
2023/06/26 01:46:53;;;;;;;;;;;21.70;87.80;;;;;;4983157;28;20010;-86
2023/06/26 01:49:47;;;;;;;7.93;5.88;;;21.70;87.50;;;;;;4985369;28;19926;-86
2023/06/26 01:52:28;;;;;;;7.50;5.70;;;21.70;87.60;;;;;;5000350;28;20117;-85
2023/06/26 01:54:56;;;;;;;8.07;5.82;;;21.70;87.70;;;;;;4995288;28;20031;-85
2023/06/26 01:57:23;;;;;;;8.93;6.30;;;21.70;87.50;;;;;;4999666;28;20054;-86
2023/06/26 01:59:49;;;;;;;7.40;5.90;;;21.70;87.70;;;;;;4999509;28;20117;-85
2023/06/26 02:02:15;;;;;;;7.57;5.80;;;21.70;87.60;;;;;;5001209;28;20030;-86
2023/06/26 02:04:41;;;;;;;7.35;5.38;;;21.70;87.70;;;;;;4992417;28;20023;-85
2023/06/26 02:07:06;;;;;;;8.95;6.57;;;21.60;87.70;;;;;;4982598;28;20018;-85
2023/06/26 02:09:32;;;;;;;7.93;5.70;;;21.60;87.80;;;;;;4998207;28;20065;-85
2023/06/26 02:11:57;;;;;;;8.20;5.90;;;21.60;87.90;;;;;;4997852;28;20071;-85
2023/06/26 02:14:23;;;;;;;8.23;5.90;;;21.60;88.00;;;;;;4993969;28;20029;-86
2023/06/26 02:16:48;;;;;;;8.23;5.88;;;21.60;87.90;;;;;;4978107;28;20545;-85
2023/06/26 02:19:21;;;;;;;7.82;5.90;;;21.60;88.00;;;;;;4999094;28;20109;-85
2023/06/26 02:21:48;;;;;;;7.85;5.90;;;21.60;88.10;;;;;;4994492;28;20030;-85
2023/06/26 02:26:41;;;;;;;7.32;5.70;;;21.50;88.10;;;;;;4997767;28;20459;-86
2023/06/26 02:29:06;;;;;;;7.57;5.85;;;21.50;88.10;;;;;;4997985;28;20015;-85
2023/06/26 02:31:32;;;;;;;7.50;5.82;;;21.60;88.20;;;;;;4997253;28;20065;-85
2023/06/26 02:33:57;;;;;;;7.05;5.50;;;21.50;88.20;;;;;;4981679;28;20026;-85
2023/06/26 02:36:23;;;;;;;7.05;5.53;;;21.60;88.20;;;;;;4978018;28;20388;-85
2023/06/26 02:38:48;;;;;;;7.47;5.80;;;21.50;88.20;;;;;;4976802;28;20019;-86
2023/06/26 02:41:14;;;;;;;7.60;5.78;;;21.50;88.20;;;;;;4976905;28;20030;-85
2023/06/26 02:43:39;;;;;;;8.93;5.90;;;21.50;88.20;;;;;;4968262;28;20032;-85
2023/06/26 02:46:05;;;;;;;7.60;5.68;;;21.50;88.20;;;;;;4958748;28;20024;-85
2023/06/26 02:48:31;;;;;;;7.50;5.68;;;21.50;88.20;;;;;;4975831;28;20091;-85
2023/06/26 02:50:57;;;;;;;7.60;5.32;;;21.50;88.20;;;;;;4976095;28;20483;-85
2023/06/26 02:53:22;;;;;;;7.57;6.03;;;21.50;88.20;;;;;;4974264;28;20026;-86
2023/06/26 02:55:48;;;;;;;8.00;6.30;;;21.50;88.20;;;;;;4949537;29;20062;-85
2023/06/26 02:58:13;;;;;;;8.48;5.63;;;21.50;88.20;;;;;;4974278;28;20106;-85
2023/06/26 03:00:41;;;;;;;9.32;5.95;;;21.60;88.10;;;;;;4975833;28;20030;-86
2023/06/26 03:03:07;;;;;;;8.10;5.85;;;21.60;88.10;;;;;;4973867;28;20097;-86
2023/06/26 03:05:32;;;;;;;7.68;5.80;;;21.60;88.10;;;;;;4968052;28;20019;-85
2023/06/26 03:07:58;;;;;;;8.68;6.00;;;21.60;88.00;;;;;;4971823;28;20029;-86
2023/06/26 03:10:23;;;;;;;7.60;5.78;;;21.60;88.00;;;;;;4975908;28;20029;-85
2023/06/26 03:12:49;;;;;;;7.25;5.72;;;21.70;88.00;;;;;;4973479;28;20130;-85
2023/06/26 03:15:14;;;;;;;7.65;5.63;;;21.70;87.70;;;;;;4957925;28;20515;-85
2023/06/26 03:17:40;;;;;;;7.90;6.00;;;21.70;87.60;;;;;;4968613;28;20027;-85
2023/06/26 03:20:06;;;;;;;7.00;5.32;;;21.60;87.70;;;;;;4975408;28;20054;-85
2023/06/26 03:22:33;;;;;;;7.10;5.53;;;21.70;87.50;;;;;;4973802;28;20506;-85
2023/06/26 03:24:59;;;;;;;8.27;6.18;;;21.60;87.50;;;;;;4964518;28;20118;-80
2023/06/26 03:27:25;;;;;;;7.43;5.70;;;21.70;87.80;;;;;;4961850;28;20126;-85
2023/06/26 03:29:51;;;;;;;7.22;5.70;;;21.60;87.60;;;;;;4950034;28;20034;-85
2023/06/26 03:32:17;;;;;;;7.25;5.35;;;21.60;87.40;;;;;;4937899;29;20023;-85
2023/06/26 03:34:42;;;;;;;7.18;5.70;;;21.60;87.50;;;;;;4968244;28;20125;-83
2023/06/26 03:37:08;;;;;;;7.80;6.07;;;21.60;87.60;;;;;;4958726;28;20034;-85
2023/06/26 03:39:33;;;;;;;7.82;6.00;;;21.60;87.60;;;;;;4957813;28;20022;-84
2023/06/26 03:42:00;;;;;;;8.43;6.45;;;21.60;87.70;;;;;;4958031;28;20109;-84
2023/06/26 03:44:26;;;;;;;7.47;5.53;;;21.60;87.80;;;;;;4958479;28;20074;-83
2023/06/26 03:46:52;;;;;;;7.38;5.50;;;21.60;87.80;;;;;;4964222;28;20141;-84
2023/06/26 03:49:18;;;;;;;7.50;5.60;;;21.60;87.80;;;;;;4975338;28;20443;-85
2023/06/26 03:51:44;;;;;;;8.02;5.72;;;21.60;87.80;;;;;;4980441;28;20035;-86
2023/06/26 03:54:10;;;;;;;7.25;5.82;;;21.60;87.80;;;;;;4969243;28;20084;-83
2023/06/26 03:56:35;;;;;;;7.80;5.90;;;21.60;87.80;;;;;;4977172;28;20098;-82
2023/06/26 03:59:01;;;;;;;7.68;5.95;;;21.50;87.80;;;;;;4976554;28;20029;-86
2023/06/26 04:01:27;;;;;;;7.30;5.60;;;21.50;87.80;;;;;;4979444;28;20420;-86
2023/06/26 04:03:53;;;;;;;8.30;6.03;;;21.50;87.70;;;;;;4972573;28;20033;-86
2023/06/26 04:06:18;;;;;;;7.95;6.15;;;21.60;87.80;;;;;;4979614;28;20472;-87
2023/06/26 04:08:44;;;;;;;8.38;5.75;;;21.50;87.70;;;;;;4959842;28;20031;-81
2023/06/26 04:11:09;;;;;;;7.70;5.80;;;21.50;87.70;;;;;;4958508;28;20034;-81
2023/06/26 04:13:35;;;;;;;7.88;5.57;;;21.50;87.60;;;;;;4960750;28;20023;-80
2023/06/26 04:16:01;;;;;;;9.82;5.75;;;21.50;87.60;;;;;;4964212;28;20616;-79
2023/06/26 04:18:27;;;;;;;8.82;6.07;;;21.40;87.50;;;;;;4974642;28;20043;-80
2023/06/26 04:21:11;;;;;;;9.30;6.22;;;21.50;87.50;;;;;;4973861;28;20046;-79
2023/06/26 04:23:37;;;;;;;8.88;5.90;;;21.50;87.50;;;;;;4956099;28;20042;-86
2023/06/26 04:26:04;;;;;;;8.77;6.28;;;21.60;87.50;;;;;;4961368;28;20042;-86
2023/06/26 04:28:34;;;;;;;8.85;5.80;;;21.50;87.30;;;;;;4977636;28;20023;-86
2023/06/26 04:31:00;;;;;;;9.23;5.90;;;21.60;87.10;;;;;;4976410;28;20041;-85
2023/06/26 04:33:26;;;;;;;8.95;5.70;;;21.60;86.90;;;;;;4969736;28;20027;-85
2023/06/26 04:35:52;;;;;;;9.57;5.93;;;21.60;86.80;;;;;;4960326;28;20158;-86
2023/06/26 04:38:19;;;;;;;8.35;6.10;;;21.60;86.60;;;;;;4963011;28;20041;-86
2023/06/26 04:40:45;;;;;;;10.13;5.72;;;21.60;86.40;;;;;;4966049;28;20115;-87
2023/06/26 04:43:10;;;;;;;8.32;5.90;;;21.60;86.20;;;;;;4972955;28;20059;-86
2023/06/26 04:45:36;;;;;;;9.73;6.15;;;21.70;86.20;;;;;;4974103;28;20030;-85
2023/06/26 04:48:02;;;;;;;9.65;5.47;;;21.70;86.20;;;;;;4972583;28;20476;-86
2023/06/26 04:50:28;;;;;;;10.48;6.10;;;21.70;85.90;;;;;;4978943;28;20035;-89
2023/06/26 04:52:54;;;;;;;9.82;6.32;;;21.70;85.90;;;;;;4976091;28;20035;-88
2023/06/26 04:55:21;;;;;;;8.88;5.68;;;21.70;85.80;;;;;;4962755;28;20031;-88
2023/06/26 04:57:47;;;;;;;10.93;6.63;;;21.70;85.70;;;;;;4975645;28;20054;-86
2023/06/26 05:00:14;;;;;;;10.55;6.38;;;21.70;85.80;;;;;;4977289;28;20035;-86
2023/06/26 05:02:39;;;;;;;9.57;6.20;;;21.70;86.00;;;;;;4974534;28;20023;-85
2023/06/26 05:05:05;;;;;;;9.00;5.97;;;21.60;86.00;;;;;;4968741;28;20034;-86
2023/06/26 05:07:30;;;;;;;10.27;6.18;;;21.60;86.00;;;;;;4970328;28;20030;-86
2023/06/26 05:09:56;;;;;;;7.97;5.95;;;21.60;86.10;;;;;;4977637;28;20058;-85
2023/06/26 05:12:21;;;;;;;8.35;6.03;;;21.60;86.10;;;;;;4979456;28;20039;-87
2023/06/26 05:14:50;;;;;;;10.25;6.07;;;21.60;86.10;;;;;;4963168;28;20039;-86
2023/06/26 05:18:19;;;;;;;10.70;6.45;;;21.70;86.20;;;;;;4962630;28;20031;-84
2023/06/26 05:25:07;;;;;;;9.07;6.13;;;21.60;86.10;;;;;;5152798;23;20061;-82
2023/06/26 05:27:32;;;;;;;8.73;6.28;;;21.60;86.20;;;;;;4978305;28;20039;-87
2023/06/26 05:29:58;;;;;;;9.93;5.97;;;21.60;86.10;;;;;;4960602;28;20121;-85
2023/06/26 05:32:24;;;;;;;8.98;6.18;;;21.60;86.20;;;;;;4960716;28;20027;-85
2023/06/26 05:34:52;;;;;;;7.80;5.70;;;21.60;86.20;;;;;;4988860;28;20041;-85
2023/06/26 05:37:20;;;;;;;8.80;5.82;;;21.60;86.20;;;;;;4960069;28;20031;-85
2023/06/26 05:39:46;;;;;;;11.93;5.78;;;21.60;86.10;;;;;;4977598;28;20031;-85
2023/06/26 05:42:12;;;;;;;9.18;6.40;;;21.70;86.20;;;;;;4977481;28;20399;-85
2023/06/26 05:44:38;;;;;;;8.95;5.70;;;21.60;86.20;;;;;;4986897;28;20408;-85
2023/06/26 05:47:03;;;;;;;8.20;6.00;;;21.70;86.20;;;;;;4960032;28;20524;-85
2023/06/26 05:49:29;;;;;;;9.07;6.13;;;21.60;86.20;;;;;;4959029;28;20027;-85
2023/06/26 05:51:55;;;;;;;9.23;6.00;;;21.70;86.20;;;;;;4976820;28;20073;-85
2023/06/26 05:54:20;;;;;;;8.02;5.75;;;21.70;86.70;;;;;;4964528;28;20408;-85
2023/06/26 05:56:47;;;;;;;8.77;6.43;;;21.70;86.20;;;;;;4974556;28;20483;-85
2023/06/26 05:59:15;;;;;;;8.55;6.15;;;21.70;86.30;;;;;;4993860;28;20038;-85
2023/06/26 06:01:40;;;;;;;8.55;5.78;;;21.80;86.20;;;;;;4995656;28;20026;-86
2023/06/26 06:04:06;;;;;;;8.23;5.85;;;21.70;86.00;;;;;;4989768;28;20094;-86
2023/06/26 06:06:31;;;;;;;8.45;6.13;;;21.80;86.00;;;;;;4993736;28;20050;-85
2023/06/26 06:08:57;;;;;;;8.32;5.32;;;21.80;85.90;;;;;;4993934;28;20023;-85
2023/06/26 06:11:22;;;;;;;7.53;5.25;;;21.80;85.80;;;;;;4993320;28;20053;-85
2023/06/26 06:13:48;;;;;;;8.20;5.68;;;21.80;85.70;;;;;;4984764;28;20034;-85
2023/06/26 06:16:13;;;;;;;9.68;5.60;;;21.90;85.70;;;;;;4968030;28;20733;-82
2023/06/26 06:18:39;;;;;;;7.18;5.63;;;21.90;85.60;;;;;;4993386;28;20035;-85
2023/06/26 06:21:04;;;;;;;9.82;6.10;;;21.90;85.60;;;;;;4992921;28;20018;-85
2023/06/26 06:23:30;;;;;;;8.05;5.25;;;21.90;85.60;;;;;;4988215;28;20065;-85
2023/06/26 06:25:55;;;;;;;7.95;5.70;;;21.90;85.50;;;;;;4968367;28;20487;-85
2023/06/26 06:28:21;;;;;;;7.20;5.45;;;21.90;85.60;;;;;;4992820;28;20484;-85
2023/06/26 06:30:47;;;;;;;7.97;5.53;;;21.90;85.60;;;;;;4992864;28;20022;-85
2023/06/26 06:33:13;;;;;;;7.72;5.47;;;21.90;85.70;;;;;;4990656;28;20050;-85
2023/06/26 06:35:39;;;;;;;7.57;5.32;;;21.90;85.80;;;;;;4976301;28;20081;-85
2023/06/26 06:38:05;;;;;;;7.35;5.63;;;21.80;85.70;;;;;;4976217;28;20034;-85
2023/06/26 06:40:30;;;;;;;8.48;5.82;;;21.90;85.90;;;;;;4993898;28;20033;-85
2023/06/26 06:42:56;;;;;;;8.63;5.90;;;21.80;85.80;;;;;;4992026;28;20069;-85
2023/06/26 06:45:21;;;;;;;8.15;5.65;;;21.80;85.90;;;;;;4967245;28;20030;-85
2023/06/26 06:47:47;;;;;;;7.68;5.45;;;21.90;85.90;;;;;;4981143;28;20109;-85
2023/06/26 06:50:13;;;;;;;7.68;5.43;;;21.80;85.80;;;;;;4992206;28;20129;-85
2023/06/26 06:52:40;;;;;;;7.13;5.32;;;21.80;85.90;;;;;;4991894;28;20117;-84
2023/06/26 06:55:08;;;;;;;7.55;5.40;;;21.90;85.90;;;;;;4973061;28;20029;-85
2023/06/26 06:57:37;;;;;;;9.40;5.70;;;21.80;85.80;;;;;;4956312;28;20114;-85
2023/06/26 07:00:11;;;;;;;7.00;5.15;;;21.90;85.90;;;;;;4956239;28;20114;-86
2023/06/26 07:02:38;;;;;;;8.20;5.95;;;21.90;85.90;;;;;;4957655;28;20039;-87
2023/06/26 07:05:04;;;;;;;7.75;5.50;;;21.90;85.90;;;;;;4977067;28;20031;-86
2023/06/26 07:07:31;;;;;;;7.47;5.07;;;21.90;85.90;;;;;;5003182;28;20022;-86
2023/06/26 07:09:59;;;;;;;8.02;5.65;;;21.90;85.90;;;;;;4987033;28;20582;-86
2023/06/26 07:12:24;;;;;;;7.13;5.40;;;21.90;85.90;;;;;;5004242;28;20022;-86
2023/06/26 07:14:50;;;;;;;8.00;5.35;;;22.00;85.90;;;;;;4997632;28;20081;-85
2023/06/26 07:17:15;;;;;;;8.05;5.45;;;21.90;85.80;;;;;;4985959;28;20129;-86
2023/06/26 07:19:41;;;;;;;8.25;5.38;;;21.90;85.80;;;;;;5003291;28;20380;-86
2023/06/26 07:22:06;;;;;;;7.90;5.70;;;22.00;85.80;;;;;;5003326;28;20034;-86
2023/06/26 07:24:32;;;;;;;7.32;5.40;;;22.00;85.80;;;;;;4980201;28;20027;-86
2023/06/26 07:27:00;;;;;;;6.85;5.20;;;22.00;85.70;;;;;;5000811;28;20403;-86
2023/06/26 07:29:26;;;;;;;8.02;5.47;;;22.10;85.70;;;;;;5001358;28;20601;-85
2023/06/26 07:31:51;;;;;;;7.43;5.65;;;22.00;85.40;;;;;;5001832;28;20058;-86
2023/06/26 07:34:17;;;;;;;8.65;5.85;;;22.20;85.30;;;;;;4995386;28;20041;-86
2023/06/26 07:36:42;;;;;;;7.35;5.55;;;22.20;85.20;;;;;;4999783;28;20501;-86
2023/06/26 07:39:07;;;;;;;7.85;5.60;;;22.20;85.10;;;;;;4983688;28;20035;-85
2023/06/26 07:41:33;;;;;;;7.35;5.45;;;22.20;85.10;;;;;;4999514;28;20018;-86
2023/06/26 07:43:59;;;;;;;8.23;5.90;;;22.20;85.00;;;;;;4995830;28;20037;-86
2023/06/26 07:46:24;;;;;;;7.68;5.53;;;22.20;85.00;;;;;;4969187;28;20085;-86
2023/06/26 07:48:50;;;;;;;7.90;5.43;;;22.20;84.90;;;;;;4963374;28;20510;-86
2023/06/26 07:51:15;;;;;;;8.15;5.68;;;22.20;85.00;;;;;;4966479;28;20102;-86
2023/06/26 07:53:41;;;;;;;7.50;5.57;;;22.20;85.00;;;;;;4969724;28;20042;-87
2023/06/26 07:56:07;;;;;;;7.72;5.75;;;22.20;85.00;;;;;;4975799;28;20027;-87
2023/06/26 07:58:32;;;;;;;7.18;5.43;;;22.20;85.10;;;;;;4979708;28;20057;-86
2023/06/26 08:00:57;;;;;;;7.90;5.72;;;22.20;85.30;;;;;;5001694;28;20105;-87
2023/06/26 08:03:23;;;;;;;7.97;6.07;;;22.10;85.40;;;;;;4998274;28;20472;-85
2023/06/26 08:05:49;;;;;;;7.78;5.93;;;22.10;85.50;;;;;;4976196;28;20061;-86
2023/06/26 08:08:14;;;;;;;7.85;5.88;;;22.00;85.60;;;;;;5001726;28;20445;-86
2023/06/26 08:10:40;;;;;;;8.07;5.57;;;22.00;85.70;;;;;;5001984;28;20113;-86
2023/06/26 08:13:05;;;;;;;7.78;5.68;;;22.00;85.80;;;;;;4998462;28;20026;-87
2023/06/26 08:15:31;;;;;;;7.88;5.68;;;22.00;85.90;;;;;;4973081;28;20070;-85
2023/06/26 08:17:56;;;;;;;7.70;5.75;;;22.00;86.00;;;;;;4963177;28;20082;-86
2023/06/26 08:20:22;;;;;;;7.15;5.20;;;22.00;86.10;;;;;;4963885;28;20500;-85
2023/06/26 08:22:50;;;;;;;7.47;5.38;;;22.00;86.10;;;;;;4981812;28;20022;-86
2023/06/26 08:25:16;;;;;;;7.88;5.70;;;21.90;86.20;;;;;;4990809;23;20101;-84
2023/06/26 08:27:41;;;;;;;7.80;5.47;;;21.90;86.30;;;;;;4975672;28;20054;-82
2023/06/26 08:30:07;;;;;;;7.72;5.60;;;21.90;86.30;;;;;;4977628;28;20053;-84
2023/06/26 08:32:32;;;;;;;7.35;5.80;;;22.00;86.30;;;;;;4977617;28;20030;-84
2023/06/26 08:34:58;;;;;;;7.60;5.45;;;21.90;86.20;;;;;;4971445;28;20110;-84
2023/06/26 08:37:24;;;;;;;7.70;5.78;;;22.00;86.20;;;;;;4972320;28;20027;-84
2023/06/26 08:39:49;;;;;;;7.25;5.50;;;22.00;86.10;;;;;;4958687;28;20109;-84
2023/06/26 08:42:15;;;;;;;6.95;5.35;;;22.00;86.00;;;;;;4975783;28;20038;-84
2023/06/26 08:44:41;;;;;;;7.72;5.68;;;22.10;85.90;;;;;;4955437;28;20031;-84
2023/06/26 08:47:06;;;;;;;7.68;5.53;;;22.10;85.80;;;;;;4955021;29;20421;-84
2023/06/26 08:49:52;;;;;;;6.75;5.15;;;22.20;85.70;;;;;;4956646;29;20125;-84
2023/06/26 08:52:23;;;;;;;7.15;5.43;;;22.20;85.50;;;;;;4956458;29;20387;-84
2023/06/26 08:54:56;;;;;;;7.77;5.67;;;22.20;85.40;;;;;;4962490;28;20120;-84
2023/06/26 08:57:23;;;;;;;6.93;5.00;;;22.20;85.30;;;;;;4954917;29;20077;-84
2023/06/26 08:59:49;;;;;;;7.28;5.40;;;22.30;85.30;;;;;;4970148;28;20062;-84
2023/06/26 09:02:15;;;;;;;7.22;5.40;;;22.40;85.30;;;;;;4958419;28;20047;-84
2023/06/26 09:04:41;;;;;;;7.53;5.55;;;22.30;85.30;;;;;;4954896;28;20055;-83
2023/06/26 09:07:07;;;;;;;6.72;5.22;;;22.30;85.20;;;;;;4957680;28;20073;-84
2023/06/26 09:09:33;;;;;;;7.47;5.25;;;22.30;85.10;;;;;;4975310;28;20058;-84
2023/06/26 09:11:58;;;;;;;6.78;5.07;;;22.30;85.10;;;;;;4957932;28;20467;-84
2023/06/26 09:14:24;;;;;;;7.60;5.65;;;22.30;85.20;;;;;;4954739;28;20079;-84
2023/06/26 09:16:50;;;;;;;7.78;5.55;;;22.30;85.20;;;;;;4974940;28;20451;-83
2023/06/26 09:19:15;;;;;;;7.15;5.10;;;22.30;85.20;;;;;;4957871;28;20030;-83
2023/06/26 09:21:42;;;;;;;7.25;5.60;;;22.30;85.20;;;;;;4975249;28;20439;-84
2023/06/26 09:24:09;;;;;;;7.18;5.57;;;22.40;85.10;;;;;;4970909;28;20039;-84
2023/06/26 09:26:39;;;;;;;7.28;5.50;;;22.40;85.00;;;;;;4954291;29;20422;-84
2023/06/26 09:29:05;;;;;;;6.80;4.90;;;22.30;85.00;;;;;;4955164;28;20416;-83
2023/06/26 09:31:33;;;;;;;7.65;5.47;;;22.30;85.30;;;;;;4957433;28;20026;-84
2023/06/26 09:33:59;;;;;;;7.60;5.93;;;22.30;85.40;;;;;;4955550;28;20122;-83
2023/06/26 09:36:28;;;;;;;7.20;5.43;;;22.30;85.50;;;;;;4963741;28;20388;-83
2023/06/26 09:38:54;;;;;;;7.55;5.57;;;22.20;85.50;;;;;;4954181;29;20031;-84
2023/06/26 09:41:20;;;;;;;7.70;5.70;;;22.20;86.10;;;;;;4955555;29;20040;-84
2023/06/26 09:43:46;;;;;;;7.32;5.22;;;22.20;85.60;;;;;;4954743;28;20110;-84
2023/06/26 09:46:16;;;;;;;7.13;5.30;;;22.20;85.70;;;;;;4969855;28;20550;-83
2023/06/26 09:48:42;;;;;;;7.05;5.10;;;22.20;85.70;;;;;;4957141;28;20023;-84
2023/06/26 09:51:07;;;;;;;7.28;5.40;;;22.20;85.70;;;;;;4956995;28;20124;-84
2023/06/26 09:53:36;;;;;;;7.10;5.35;;;22.20;85.80;;;;;;4955375;28;20113;-84
2023/06/26 09:56:16;;;;;;;7.15;5.40;;;22.20;85.90;;;;;;4961549;28;20023;-84
2023/06/26 09:58:43;;;;;;;6.78;4.78;;;22.10;86.40;;;;;;4957009;28;20106;-84
2023/06/26 10:01:09;;;;;;;7.95;5.20;;;22.10;86.10;;;;;;4956769;28;20058;-84
2023/06/26 10:03:35;;;;;;;7.57;5.70;;;22.10;86.20;;;;;;4972628;28;20151;-84
2023/06/26 10:06:02;;;;;;;6.70;5.07;;;22.10;86.30;;;;;;4953684;29;20122;-84
2023/06/26 10:08:28;;;;;;;7.30;5.47;;;22.10;86.20;;;;;;4937304;29;20113;-84
2023/06/26 10:10:54;;;;;;;7.53;5.50;;;22.10;86.20;;;;;;4953734;29;20551;-84
2023/06/26 10:13:25;;;;;;;6.95;5.05;;;22.10;86.20;;;;;;4937500;28;20411;-83
2023/06/26 10:15:51;;;;;;;7.38;5.18;;;22.10;86.20;;;;;;4956883;28;20027;-84
2023/06/26 10:18:18;;;;;;;7.80;5.40;;;22.10;86.20;;;;;;4956517;28;20082;-84
2023/06/26 10:20:48;;;;;;;7.28;5.40;;;22.10;86.20;;;;;;4974027;28;20037;-84
2023/06/26 10:23:15;;;;;;;6.88;5.15;;;22.10;86.20;;;;;;4973858;28;20023;-84
2023/06/26 10:25:44;;;;;;;7.35;5.22;;;22.10;86.30;;;;;;4955443;28;20039;-84
2023/06/26 10:28:11;;;;;;;7.38;5.20;;;22.10;86.30;;;;;;4956119;28;20030;-84
2023/06/26 10:30:39;;;;;;;7.57;4.90;;;22.10;86.20;;;;;;4956413;28;20031;-84
2023/06/26 10:33:07;;;;;;;6.80;5.03;;;22.10;86.10;;;;;;4956462;28;20070;-85
2023/06/26 10:35:32;;;;;;;7.75;5.07;;;22.20;86.00;;;;;;4955896;28;20027;-85
2023/06/26 10:38:06;;;;;;;7.30;5.38;;;22.20;86.40;;;;;;4956094;28;20045;-84
2023/06/26 10:40:43;;;;;;;6.88;4.95;;;22.30;85.70;;;;;;4956398;28;20068;-84
2023/06/26 10:43:09;;;;;;;6.80;5.13;;;22.30;85.50;;;;;;4956512;28;20457;-84
2023/06/26 10:45:36;;;;;;;7.53;4.80;;;22.30;85.40;;;;;;4954072;28;20035;-84
2023/06/26 10:48:04;;;;;;;7.10;4.55;;;22.30;85.30;;;;;;4956051;28;20030;-84
2023/06/26 10:50:31;;;;;;;6.53;4.80;;;22.30;85.30;;;;;;4973576;28;20023;-83
2023/06/26 10:53:21;;;;;;;6.88;4.78;;;22.30;85.40;;;;;;4973719;28;20038;-84
2023/06/26 10:55:56;;;;;;;7.15;4.90;;;22.30;85.50;;;;;;4964419;28;20031;-84
2023/06/26 10:58:39;;;;;;;7.53;4.90;;;22.20;85.60;;;;;;4952854;29;20114;-84
2023/06/26 11:01:11;;;;;;;6.75;4.70;;;22.30;85.70;;;;;;4953938;29;20450;-84
2023/06/26 11:03:38;;;;;;;6.57;4.45;;;22.20;86.20;;;;;;4954648;28;20022;-84
2023/06/26 11:06:12;;;;;;;7.50;4.88;;;22.20;85.70;;;;;;4954180;28;20059;-84
2023/06/26 11:08:49;;;;;;;6.47;4.68;;;22.20;85.60;;;;;;4956181;28;20511;-83
2023/06/26 11:11:15;;;;;;;7.93;5.03;;;22.20;85.70;;;;;;4956238;28;20031;-83
2023/06/26 11:13:41;;;;;;;7.00;4.78;;;22.30;85.70;;;;;;4953776;28;20057;-84
2023/06/26 11:16:07;;;;;;;7.00;4.80;;;22.30;85.70;;;;;;4956106;28;20419;-84
2023/06/26 11:18:33;;;;;;;7.88;5.30;;;22.30;85.60;;;;;;4955640;28;20031;-84
2023/06/26 11:21:27;;;;;;;6.30;4.45;;;22.20;85.70;;;;;;4955942;28;20023;-85
2023/06/26 11:23:58;;;;;;;6.72;4.90;;;22.30;85.70;;;;;;4936167;28;20039;-84
2023/06/26 11:26:23;;;;;;;6.50;4.60;;;22.30;85.80;;;;;;4952552;29;20024;-84
2023/06/26 11:28:54;;;;;;;7.53;4.80;;;22.30;85.70;;;;;;4952717;29;20046;-84
2023/06/26 11:31:27;;;;;;;;;;;22.30;85.70;;;;;;4953139;29;20023;-84
2023/06/26 11:33:54;;;;;;;6.47;4.57;;;22.30;85.70;;;;;;4954893;28;20005;-84
2023/06/26 11:36:19;;;;;;;6.85;4.78;;;22.30;85.60;;;;;;4955538;28;20484;-84
2023/06/26 11:38:45;;;;;;;6.63;4.35;;;22.30;85.60;;;;;;4955730;28;20054;-85
2023/06/26 11:41:16;;;;;;;6.80;4.70;;;22.30;85.60;;;;;;4955984;28;20130;-84
2023/06/26 11:43:41;;;;;;;6.00;4.43;;;22.30;85.60;;;;;;4954171;28;20077;-85
2023/06/26 11:46:07;;;;;;;6.30;4.57;;;22.30;85.50;;;;;;4955767;28;20433;-84
2023/06/26 11:48:33;;;;;;;7.28;4.80;;;22.30;85.60;;;;;;4955717;28;20097;-84
2023/06/26 11:50:58;;;;;;;6.57;4.63;;;22.30;85.70;;;;;;4955918;28;20428;-84
2023/06/26 11:53:24;;;;;;;6.65;4.70;;;22.30;85.60;;;;;;4957724;28;20031;-84
2023/06/26 11:55:49;;;;;;;6.80;4.25;;;22.30;85.50;;;;;;4959089;28;20571;-84
2023/06/26 11:58:14;;;;;;;6.60;4.60;;;22.40;85.50;;;;;;4958878;28;20030;-84
2023/06/26 12:00:43;;;;;;;6.70;4.40;;;22.40;85.40;;;;;;4958816;28;20029;-83
2023/06/26 12:03:09;;;;;;;6.03;3.92;;;22.40;85.40;;;;;;4976456;28;20030;-84
2023/06/26 12:05:34;;;;;;;6.43;4.20;;;22.40;85.20;;;;;;4968866;28;20035;-84
2023/06/26 12:08:01;;;;;;;6.40;4.43;;;22.40;85.10;;;;;;4955665;29;20074;-84
2023/06/26 12:10:27;;;;;;;6.65;4.45;;;22.50;85.10;;;;;;4955783;29;20024;-84
2023/06/26 12:12:53;;;;;;;5.93;4.07;;;22.50;85.00;;;;;;4955832;29;20054;-84
2023/06/26 12:15:19;;;;;;;5.80;4.10;;;22.50;85.00;;;;;;4955211;28;20035;-84
2023/06/26 12:17:45;;;;;;;5.75;4.10;;;22.40;85.00;;;;;;4958447;28;20031;-84
2023/06/26 12:20:25;;;;;;;5.80;3.90;;;22.40;85.00;;;;;;4975932;28;20033;-84
2023/06/26 12:22:51;;;;;;;6.13;4.03;;;22.40;85.10;;;;;;4958641;28;20033;-84
2023/06/26 12:25:22;;;;;;;6.13;4.00;;;22.40;85.10;;;;;;4958018;28;20042;-84
2023/06/26 12:27:48;;;;;;;6.55;4.40;;;22.40;85.20;;;;;;4958601;28;20483;-84
2023/06/26 12:30:13;;;;;;;6.70;4.18;;;22.40;85.20;;;;;;4958559;28;20097;-84
2023/06/26 12:32:39;;;;;;;5.82;3.92;;;22.40;85.30;;;;;;4958968;28;20113;-83
2023/06/26 12:35:05;;;;;;;6.10;4.20;;;22.30;85.20;;;;;;4957867;28;20031;-82
2023/06/26 12:37:40;;;;;;;6.03;4.00;;;22.30;85.30;;;;;;4954789;29;20420;-83
2023/06/26 12:40:17;;;;;;;6.50;4.35;;;22.30;85.40;;;;;;4955615;29;20123;-83
2023/06/26 12:42:43;;;;;;;6.40;4.20;;;22.30;85.50;;;;;;4939487;29;20059;-84
2023/06/26 12:45:12;;;;;;;5.70;3.88;;;22.30;85.50;;;;;;4961807;28;20057;-83
2023/06/26 12:47:40;;;;;;;6.60;3.90;;;22.30;85.60;;;;;;4957998;28;20553;-84
2023/06/26 12:50:07;;;;;;;6.03;4.05;;;22.30;85.60;;;;;;4958422;28;20027;-84
2023/06/26 12:52:32;;;;;;;5.85;4.03;;;22.30;85.70;;;;;;4958315;28;20460;-84
2023/06/26 12:54:58;;;;;;;5.90;4.03;;;22.30;85.80;;;;;;4954406;28;20129;-84